Ana Sayfa
METAR-TAF:

METAR-TAF

Havaalanları :

Nashua, New Hampshire, Amerika Birleşik Devletleri

Enlem: 42-47N, Boylam: 071-31W, yükseklik: 61 m

Güncel hava durumu gözlemi

Rapor saat 00:56 UTC de 56 dakika önce yapıldı.
Rüzgar doğudan 8 kt
Sıcaklık 6°C
Nem 100%
Basınç 1011 hPa
Görüş mesafesi: 4.0 km
700 ft yükseklikte çok bulutlu
yağmur, Pus

METAR: KASH 260056Z 08008KT 2 1/2SM RA BR OVC007 06/06 A2984 RMK AO2 SLP111 PRESFR T00560056 PNO $

Saat: 20:52 (01:52 UTC)


TAF: eksik

4.000'den fazla havaalanı için hava durumu gözlemleri ve tahminleri (METAR ve TAF raporları).

Kullanılabilir istasyonlar harita üzerinde sarı ve kırmızı noktalarla gösterilir.

İstasyonun adını görmek için fareyi noktanın üzerinde gezdirin.

Sonrasında hava gözlem ve tahminlerini görmek için tıklayın.

Haritayı değiştirmek için: yaklaştırmak için siyah artı işaretli yeşil düğmeye ve uzaklaştırmak için de eksi işaretli düğmeye hızla tıklayın; bitişik haritalar için yeşil okları kullanın.


METAR-TAF: